createdAt,value
2022-09-15T00:01:11.662Z,38.70
2022-09-15T00:03:40.127Z,40.67
2022-09-15T00:06:09.120Z,40.15
2022-09-15T00:08:36.688Z,39.35
2022-09-15T00:11:25.849Z,40.28
2022-09-15T00:13:55.144Z,38.03
2022-09-15T00:16:24.424Z,37.75
2022-09-15T00:18:52.181Z,37.35
2022-09-15T00:21:23.808Z,39.78
2022-09-15T00:23:51.600Z,40.42
2022-09-15T00:26:24.096Z,38.15
2022-09-15T00:28:52.431Z,37.50
2022-09-15T00:31:22.821Z,40.65
2022-09-15T00:33:52.962Z,41.58
2022-09-15T00:36:21.823Z,42.92
2022-09-15T00:38:49.148Z,42.45
2022-09-15T00:41:19.688Z,40.22
2022-09-15T00:43:58.877Z,42.78
2022-09-15T00:46:40.150Z,43.42
2022-09-15T00:49:31.097Z,41.30
2022-09-15T00:52:06.965Z,42.10
2022-09-15T00:54:52.431Z,43.95
2022-09-15T00:57:39.442Z,43.22
2022-09-15T01:00:13.254Z,43.85
2022-09-15T01:02:42.987Z,40.25
2022-09-15T01:05:14.477Z,44.08
2022-09-15T01:07:57.633Z,45.72
2022-09-15T01:10:38.592Z,46.90
2022-09-15T01:13:09.499Z,41.40
2022-09-15T01:15:59.553Z,43.15
2022-09-15T01:18:57.443Z,43.67
2022-09-15T01:22:07.181Z,43.67
2022-09-15T01:25:27.729Z,49.72
2022-09-15T01:27:57.195Z,45.88
2022-09-15T01:30:25.651Z,47.65
2022-09-15T01:33:07.243Z,44.75
2022-09-15T01:35:50.070Z,49.17
2022-09-15T01:38:54.502Z,48.50
2022-09-15T01:41:31.618Z,46.20
2022-09-15T01:44:05.597Z,49.28
2022-09-15T01:46:42.884Z,50.70
2022-09-15T01:49:12.482Z,51.97
2022-09-15T01:51:41.409Z,51.17
2022-09-15T01:54:10.311Z,50.25
2022-09-15T01:56:38.832Z,48.67
2022-09-15T01:59:06.131Z,52.42
2022-09-15T02:01:47.107Z,52.40
2022-09-15T02:04:21.722Z,52.58
2022-09-15T02:06:58.988Z,52.78
2022-09-15T02:09:36.800Z,53.13
2022-09-15T02:12:33.935Z,50.50
2022-09-15T02:15:08.713Z,48.38
2022-09-15T02:17:54.416Z,55.53
2022-09-15T02:20:34.374Z,52.15
2022-09-15T02:23:09.947Z,53.78
2022-09-15T02:25:44.433Z,51.20
2022-09-15T02:28:14.337Z,50.53
2022-09-15T02:30:45.207Z,56.03
2022-09-15T02:33:19.709Z,51.45
2022-09-15T02:35:47.882Z,48.60
2022-09-15T02:38:15.583Z,54.17
2022-09-15T02:40:44.914Z,50.17
2022-09-15T02:43:16.984Z,51.83
2022-09-15T02:45:44.283Z,49.85
2022-09-15T02:48:11.771Z,50.13
2022-09-15T02:50:39.295Z,49.70
2022-09-15T02:53:06.296Z,49.85
2022-09-15T02:55:33.599Z,48.55
2022-09-15T02:58:01.152Z,47.92
2022-09-15T03:00:28.725Z,48.92
2022-09-15T03:02:56.215Z,48.38
2022-09-15T03:05:29.928Z,48.17
2022-09-15T03:10:26.045Z,49.33
2022-09-15T03:12:55.005Z,53.00
2022-09-15T03:15:25.192Z,53.30
2022-09-15T03:17:53.916Z,54.75
2022-09-15T03:20:30.381Z,52.03
2022-09-15T03:22:57.368Z,50.65
2022-09-15T03:25:26.823Z,50.17
2022-09-15T03:27:53.868Z,46.50
2022-09-15T03:30:20.837Z,49.30
2022-09-15T03:32:49.009Z,50.00
2022-09-15T03:35:16.203Z,54.80
2022-09-15T03:37:43.147Z,50.08
2022-09-15T03:40:10.853Z,48.55
2022-09-15T03:42:37.761Z,52.15
2022-09-15T03:45:05.052Z,54.22
2022-09-15T03:47:33.349Z,48.25
2022-09-15T03:50:00.401Z,48.17
2022-09-15T03:52:31.999Z,48.80
2022-09-15T03:54:59.096Z,48.63
2022-09-15T03:57:26.222Z,47.08
2022-09-15T03:59:53.270Z,49.40
2022-09-15T04:02:20.224Z,48.20
2022-09-15T04:04:47.233Z,52.38
2022-09-15T04:07:14.435Z,46.00
2022-09-15T04:09:42.031Z,49.75
2022-09-15T04:12:11.022Z,47.25
2022-09-15T04:14:38.038Z,51.03
2022-09-15T04:17:05.331Z,48.75
2022-09-15T04:19:32.467Z,46.28
2022-09-15T04:21:59.352Z,46.15
2022-09-15T04:24:26.528Z,46.80
2022-09-15T04:26:53.542Z,49.42
2022-09-15T04:29:20.545Z,54.53
2022-09-15T04:31:48.253Z,53.33
2022-09-15T04:34:15.242Z,48.35
2022-09-15T04:36:42.380Z,49.28
2022-09-15T04:39:09.562Z,50.10
2022-09-15T04:41:36.726Z,51.17
2022-09-15T04:44:04.335Z,53.58
2022-09-15T04:46:32.473Z,50.00
2022-09-15T04:49:00.162Z,50.30
2022-09-15T04:51:27.247Z,53.92
2022-09-15T04:53:54.205Z,49.08
2022-09-15T04:56:26.595Z,45.20
2022-09-15T04:59:01.102Z,45.28
2022-09-15T05:01:34.468Z,43.47
2022-09-15T05:04:04.218Z,45.70
2022-09-15T05:06:32.369Z,44.70
2022-09-15T05:08:59.687Z,47.90
2022-09-15T05:11:28.368Z,44.83
2022-09-15T05:13:55.603Z,50.75
2022-09-15T05:16:26.867Z,45.88
2022-09-15T05:18:58.882Z,47.00
2022-09-15T05:21:26.844Z,50.70
2022-09-15T05:23:54.166Z,49.88
2022-09-15T05:26:28.390Z,46.85
2022-09-15T05:28:57.224Z,46.88
2022-09-15T05:31:27.826Z,46.95
2022-09-15T05:33:55.416Z,52.20
2022-09-15T05:36:25.342Z,48.90
2022-09-15T05:38:56.872Z,49.13
2022-09-15T05:41:25.917Z,48.97
2022-09-15T05:43:55.326Z,48.08
2022-09-15T05:46:23.238Z,45.47
2022-09-15T05:48:51.267Z,48.88
2022-09-15T05:51:18.828Z,46.15
2022-09-15T05:53:47.213Z,49.88
2022-09-15T05:56:17.390Z,50.78
2022-09-15T05:58:47.551Z,47.05
2022-09-15T06:01:26.958Z,59.97
2022-09-15T06:03:55.703Z,53.28
2022-09-15T06:06:24.322Z,53.70
2022-09-15T06:08:58.984Z,50.72
2022-09-15T06:11:31.328Z,47.40
2022-09-15T06:14:20.331Z,56.25
2022-09-15T06:16:47.338Z,51.88
2022-09-15T06:19:14.837Z,54.90
2022-09-15T06:21:41.772Z,55.95
2022-09-15T06:24:12.586Z,49.58
2022-09-15T06:26:40.076Z,51.88
2022-09-15T06:29:08.059Z,56.60
2022-09-15T06:31:35.792Z,53.83
2022-09-15T06:34:04.119Z,51.97
2022-09-15T06:36:31.870Z,50.85
2022-09-15T06:38:59.731Z,49.47
2022-09-15T06:41:38.291Z,47.17
2022-09-15T06:44:22.252Z,44.97
2022-09-15T06:46:50.162Z,44.92
2022-09-15T06:49:17.750Z,43.85
2022-09-15T06:51:44.850Z,44.83
2022-09-15T06:54:12.164Z,41.35
2022-09-15T06:56:39.694Z,39.05
2022-09-15T06:59:07.420Z,32.17
2022-09-15T07:01:35.100Z,37.75
2022-09-15T07:04:05.893Z,36.08
2022-09-15T07:06:33.966Z,31.67
2022-09-15T07:09:02.445Z,31.10
2022-09-15T07:11:30.143Z,29.23
2022-09-15T07:13:57.421Z,30.95
2022-09-15T07:16:27.823Z,24.23
2022-09-15T07:19:01.809Z,20.67
2022-09-15T07:23:58.087Z,27.00
2022-09-15T07:26:28.487Z,21.88
2022-09-15T07:29:02.416Z,24.67
2022-09-15T07:31:32.668Z,25.02
2022-09-15T07:34:01.085Z,24.85
2022-09-15T07:36:29.693Z,23.00
2022-09-15T07:38:56.908Z,21.60
2022-09-15T07:41:29.980Z,22.52
2022-09-15T07:43:59.676Z,22.90
2022-09-15T07:46:30.705Z,24.92
2022-09-15T07:48:57.778Z,23.88
2022-09-15T07:51:26.087Z,21.05
2022-09-15T07:53:54.000Z,23.58
2022-09-15T07:56:22.088Z,24.00
2022-09-15T07:58:50.162Z,27.35
2022-09-15T08:01:19.685Z,25.50
2022-09-15T08:03:50.070Z,24.63
2022-09-15T08:06:20.739Z,22.15
2022-09-15T08:08:49.108Z,24.42
2022-09-15T08:11:22.469Z,26.35
2022-09-15T08:13:52.400Z,21.08
2022-09-15T08:16:24.499Z,26.88
2022-09-15T08:18:55.550Z,24.38
2022-09-15T08:21:23.666Z,20.38
2022-09-15T08:23:57.327Z,20.73
2022-09-15T08:26:26.488Z,17.98
2022-09-15T08:28:53.942Z,24.98
2022-09-15T08:31:21.382Z,19.48
2022-09-15T08:33:53.914Z,23.10
2022-09-15T08:36:22.330Z,18.95
2022-09-15T08:38:49.839Z,23.38
2022-09-15T08:41:49.813Z,20.42
2022-09-15T08:44:40.132Z,19.83
2022-09-15T08:47:35.512Z,17.95
2022-09-15T08:50:27.423Z,13.07
2022-09-15T08:53:06.738Z,16.25
2022-09-15T08:55:55.530Z,16.20
2022-09-15T08:58:32.324Z,19.10
2022-09-15T09:01:11.440Z,14.85
2022-09-15T09:03:59.952Z,19.15
2022-09-15T09:06:52.070Z,12.40
2022-09-15T09:09:51.879Z,10.65
2022-09-15T09:12:42.166Z,7.15
2022-09-15T09:15:43.846Z,7.25
2022-09-15T09:18:42.132Z,7.45
2022-09-15T09:21:30.867Z,8.13
2022-09-15T09:24:03.262Z,6.70
2022-09-15T09:26:34.680Z,7.18
2022-09-15T09:29:19.728Z,8.38
2022-09-15T09:31:50.295Z,7.70
2022-09-15T09:34:35.685Z,6.28
2022-09-15T09:37:13.314Z,6.70
2022-09-15T09:39:41.110Z,4.53
2022-09-15T09:42:16.929Z,3.83
2022-09-15T09:44:45.041Z,4.47
2022-09-15T09:47:13.309Z,5.40
2022-09-15T09:49:47.769Z,4.38
2022-09-15T09:52:34.444Z,5.45
2022-09-15T09:55:23.453Z,6.15
2022-09-15T09:57:50.776Z,7.50
2022-09-15T10:00:38.934Z,4.57
2022-09-15T10:03:17.706Z,6.63
2022-09-15T10:05:59.363Z,5.47
2022-09-15T10:08:26.356Z,5.07
2022-09-15T10:10:56.070Z,5.03
2022-09-15T10:13:23.071Z,5.75
2022-09-15T10:16:00.857Z,5.68
2022-09-15T10:18:38.961Z,4.55
2022-09-15T10:21:09.874Z,3.50
2022-09-15T10:23:37.482Z,7.22
2022-09-15T10:26:16.837Z,5.20
2022-09-15T10:28:46.027Z,9.93
2022-09-15T10:31:30.779Z,7.93
2022-09-15T10:33:57.863Z,4.43
2022-09-15T10:36:32.082Z,6.43
2022-09-15T10:39:19.782Z,4.43
2022-09-15T10:42:04.491Z,4.20
2022-09-15T10:44:52.603Z,4.32
2022-09-15T10:48:02.843Z,5.65
2022-09-15T10:51:22.713Z,5.05
2022-09-15T10:54:31.840Z,4.85
2022-09-15T10:57:21.902Z,7.00
2022-09-15T11:00:12.788Z,3.85
2022-09-15T11:03:39.988Z,5.88
2022-09-15T11:06:32.503Z,6.70
2022-09-15T11:09:02.038Z,3.05
2022-09-15T11:11:46.107Z,4.30
2022-09-15T11:14:51.716Z,4.53
2022-09-15T11:17:37.033Z,4.28
2022-09-15T11:21:02.184Z,4.82
2022-09-15T11:23:40.742Z,1.70
2022-09-15T11:26:16.186Z,6.35
2022-09-15T11:28:56.645Z,3.75
2022-09-15T11:31:42.118Z,4.95
2022-09-15T11:34:39.077Z,3.80
2022-09-15T11:37:20.500Z,4.00
2022-09-15T11:39:55.552Z,2.28
2022-09-15T11:42:42.623Z,4.15
2022-09-15T11:45:20.806Z,3.35
2022-09-15T11:47:53.848Z,5.10
2022-09-15T11:50:29.391Z,4.13
2022-09-15T11:53:05.125Z,2.83
2022-09-15T11:55:40.663Z,3.70
2022-09-15T11:58:34.848Z,4.22
2022-09-15T12:01:10.980Z,3.15
2022-09-15T12:03:45.979Z,6.88
2022-09-15T12:07:01.743Z,8.27
2022-09-15T12:09:29.278Z,2.58
2022-09-15T12:12:07.890Z,4.43
2022-09-15T12:14:42.865Z,2.47
2022-09-15T12:17:22.384Z,6.53
2022-09-15T12:20:16.509Z,4.32
2022-09-15T12:22:54.970Z,7.47
2022-09-15T12:25:44.763Z,2.90
2022-09-15T12:28:24.130Z,3.75
2022-09-15T12:31:33.991Z,3.05
2022-09-15T12:34:26.137Z,3.38
2022-09-15T12:37:14.961Z,2.17
2022-09-15T12:39:49.183Z,4.65
2022-09-15T12:42:22.200Z,2.38
2022-09-15T12:44:54.112Z,7.63
2022-09-15T12:47:33.955Z,6.03
2022-09-15T12:50:16.269Z,3.92
2022-09-15T12:52:48.480Z,3.60
2022-09-15T12:55:24.023Z,1.90
2022-09-15T12:57:58.634Z,6.07
2022-09-15T13:00:49.994Z,3.60
2022-09-15T13:06:10.791Z,4.80
2022-09-15T13:08:38.207Z,4.05
2022-09-15T13:11:28.564Z,6.18
2022-09-15T13:14:06.676Z,5.15
2022-09-15T13:17:04.386Z,8.48
2022-09-15T13:19:46.678Z,6.40
2022-09-15T13:22:16.658Z,8.00
2022-09-15T13:25:15.725Z,4.30
2022-09-15T13:28:02.717Z,3.97
2022-09-15T13:31:11.153Z,5.53
2022-09-15T13:40:30.822Z,4.10
2022-09-15T13:43:11.972Z,4.82
2022-09-15T13:45:45.882Z,5.68
2022-09-15T13:48:40.748Z,4.63
2022-09-15T13:51:25.560Z,6.57
2022-09-15T13:54:08.393Z,3.45
2022-09-15T13:56:39.630Z,4.43
2022-09-15T13:59:17.079Z,2.55
2022-09-15T14:01:45.244Z,3.10
2022-09-15T14:04:24.483Z,4.43
2022-09-15T14:07:01.001Z,3.88
2022-09-15T14:09:39.624Z,5.53
2022-09-15T14:12:13.690Z,2.55
2022-09-15T14:14:54.712Z,3.50
2022-09-15T14:17:28.863Z,5.57
2022-09-15T14:19:59.326Z,3.58
2022-09-15T14:22:35.868Z,5.63
2022-09-15T14:25:15.093Z,5.95
2022-09-15T14:27:46.975Z,5.70
2022-09-15T14:30:28.197Z,3.83
2022-09-15T14:33:00.805Z,6.95
2022-09-15T14:35:36.439Z,4.03
2022-09-15T14:38:04.250Z,3.25
2022-09-15T14:40:41.332Z,5.03
2022-09-15T14:43:40.381Z,3.25
2022-09-15T14:46:13.090Z,4.03
2022-09-15T14:48:40.121Z,3.60
2022-09-15T14:51:33.104Z,4.40
2022-09-15T14:54:03.230Z,1.60
2022-09-15T14:56:35.655Z,4.85
2022-09-15T14:59:11.227Z,3.00
2022-09-15T15:01:43.959Z,2.15
2022-09-15T15:04:33.291Z,5.07
2022-09-15T15:07:28.099Z,6.60
2022-09-15T15:09:59.319Z,11.07
2022-09-15T15:12:32.327Z,8.30
2022-09-15T15:15:00.544Z,7.82
2022-09-15T15:17:45.303Z,4.55
2022-09-15T15:20:16.647Z,8.57
2022-09-15T15:22:45.199Z,8.05
2022-09-15T15:25:32.412Z,6.38
2022-09-15T15:28:01.044Z,11.15
2022-09-15T15:30:47.121Z,10.00
2022-09-15T15:33:27.599Z,5.97
2022-09-15T15:36:04.505Z,13.52
2022-09-15T15:38:47.617Z,5.80
2022-09-15T15:41:24.984Z,7.53
2022-09-15T15:44:07.712Z,7.07
2022-09-15T15:46:58.597Z,10.73
2022-09-15T15:49:29.897Z,4.30
2022-09-15T15:51:59.029Z,7.97
2022-09-15T15:54:27.733Z,4.55
2022-09-15T15:56:55.284Z,6.63
2022-09-15T15:59:22.268Z,5.63
2022-09-15T16:01:55.482Z,6.38
2022-09-15T16:04:22.515Z,5.85
2022-09-15T16:06:50.902Z,4.80
2022-09-15T16:09:19.380Z,2.22
2022-09-15T16:11:46.732Z,1.75
2022-09-15T16:14:14.301Z,5.70
2022-09-15T16:16:41.796Z,3.65
2022-09-15T16:19:08.894Z,3.63
2022-09-15T16:21:40.295Z,3.28
2022-09-15T16:24:14.405Z,5.28
2022-09-15T16:26:42.731Z,4.22
2022-09-15T16:29:10.333Z,3.80
2022-09-15T16:31:38.257Z,1.65
2022-09-15T16:34:05.370Z,6.35
2022-09-15T16:36:36.238Z,4.25
2022-09-15T16:39:04.535Z,4.78
2022-09-15T16:41:34.817Z,4.07
2022-09-15T16:44:04.349Z,5.30
2022-09-15T16:46:31.405Z,8.75
2022-09-15T16:48:58.398Z,5.38
2022-09-15T16:51:31.019Z,4.75
2022-09-15T16:56:27.028Z,3.17
2022-09-15T16:58:59.479Z,5.13
2022-09-15T17:01:27.536Z,4.82
2022-09-15T17:03:54.790Z,3.20
2022-09-15T17:06:22.372Z,6.20
2022-09-15T17:08:49.824Z,1.95
2022-09-15T17:11:19.805Z,4.88
2022-09-15T17:13:47.123Z,5.15
2022-09-15T17:16:19.361Z,2.53
2022-09-15T17:18:46.953Z,3.33
2022-09-15T17:21:16.740Z,2.38
2022-09-15T17:23:49.551Z,5.00
2022-09-15T17:26:31.052Z,4.80
2022-09-15T17:28:58.689Z,9.90
2022-09-15T17:31:27.913Z,7.18
2022-09-15T17:33:54.980Z,14.30
2022-09-15T17:36:22.794Z,10.77
2022-09-15T17:38:50.187Z,7.40
2022-09-15T17:41:20.466Z,12.60
2022-09-15T17:43:47.749Z,5.90
2022-09-15T17:46:16.165Z,14.13
2022-09-15T17:48:43.653Z,6.35
2022-09-15T17:51:17.123Z,15.88
2022-09-15T17:56:12.506Z,7.85
2022-09-15T17:58:39.874Z,7.05
2022-09-15T18:01:06.859Z,5.72
2022-09-15T18:03:36.967Z,8.25
2022-09-15T18:06:08.029Z,5.72
2022-09-15T18:08:38.817Z,8.93
2022-09-15T18:11:07.091Z,8.70
2022-09-15T18:13:34.522Z,8.23
2022-09-15T18:16:13.164Z,5.45
2022-09-15T18:18:40.966Z,7.65
2022-09-15T18:21:14.675Z,5.95
2022-09-15T18:23:42.496Z,8.57
2022-09-15T18:26:09.463Z,8.68
2022-09-15T18:28:36.463Z,10.55
2022-09-15T18:31:03.847Z,7.65
2022-09-15T18:33:30.796Z,6.55
2022-09-15T18:35:59.131Z,10.80
2022-09-15T18:38:26.579Z,8.45
2022-09-15T18:40:56.555Z,5.85
2022-09-15T18:43:26.921Z,4.88
2022-09-15T18:45:59.804Z,8.48
2022-09-15T18:48:27.600Z,4.82
2022-09-15T18:50:54.973Z,4.78
2022-09-15T18:53:22.015Z,4.93
2022-09-15T18:55:49.003Z,5.38
2022-09-15T18:58:15.947Z,5.72
2022-09-15T19:00:45.695Z,7.00
2022-09-15T19:03:14.331Z,6.68
2022-09-15T19:05:41.945Z,6.10
2022-09-15T19:08:10.914Z,5.50
2022-09-15T19:10:40.691Z,6.28
2022-09-15T19:13:07.709Z,5.78
2022-09-15T19:15:35.229Z,4.82
2022-09-15T19:18:02.233Z,4.75
2022-09-15T19:20:30.107Z,2.95
2022-09-15T19:22:58.344Z,5.80
2022-09-15T19:25:25.364Z,3.28
2022-09-15T19:27:52.277Z,5.45
2022-09-15T19:30:19.352Z,7.28
2022-09-15T19:32:46.392Z,2.42
2022-09-15T19:35:13.979Z,4.20
2022-09-15T19:37:42.691Z,4.90
2022-09-15T19:40:14.178Z,3.55
2022-09-15T19:42:43.677Z,8.57
2022-09-15T19:45:13.465Z,7.50
2022-09-15T19:47:41.632Z,8.40
2022-09-15T19:50:11.622Z,4.60
2022-09-15T19:52:38.685Z,4.20
2022-09-15T19:55:09.509Z,8.30
2022-09-15T19:57:41.473Z,4.45
2022-09-15T20:00:12.647Z,4.13
2022-09-15T20:02:40.344Z,2.85
2022-09-15T20:05:08.721Z,5.32
2022-09-15T20:07:35.976Z,3.50
2022-09-15T20:10:03.926Z,4.20
2022-09-15T20:12:31.347Z,5.10
2022-09-15T20:14:58.253Z,2.30
2022-09-15T20:17:25.350Z,4.88
2022-09-15T20:19:52.251Z,2.78
2022-09-15T20:22:19.156Z,2.72
2022-09-15T20:24:46.139Z,5.97
2022-09-15T20:27:13.062Z,2.83
2022-09-15T20:29:40.406Z,2.92
2022-09-15T20:32:07.315Z,8.60
2022-09-15T20:34:34.282Z,2.60
2022-09-15T20:37:01.314Z,6.70
2022-09-15T20:39:29.000Z,2.60
2022-09-15T20:41:57.702Z,3.17
2022-09-15T20:44:24.691Z,1.35
2022-09-15T20:46:51.852Z,7.35
2022-09-15T20:49:18.849Z,5.20
2022-09-15T20:51:45.835Z,3.00
2022-09-15T20:54:12.831Z,2.58
2022-09-15T20:56:40.307Z,3.97
2022-09-15T20:59:10.340Z,4.72
2022-09-15T21:01:39.103Z,4.18
2022-09-15T21:04:08.449Z,3.80
2022-09-15T21:06:36.034Z,2.90
2022-09-15T21:09:05.340Z,1.75
2022-09-15T21:11:33.147Z,11.50
2022-09-15T21:14:01.001Z,13.55
2022-09-15T21:16:29.153Z,8.82
2022-09-15T21:18:58.228Z,13.98
2022-09-15T21:21:30.009Z,14.25
2022-09-15T21:24:03.640Z,15.80
2022-09-15T21:26:35.326Z,8.57
2022-09-15T21:29:02.818Z,6.13
2022-09-15T21:31:32.973Z,4.55
2022-09-15T21:34:00.269Z,4.15
2022-09-15T21:36:30.179Z,7.30
2022-09-15T21:38:59.146Z,2.75
2022-09-15T21:41:32.175Z,3.47
2022-09-15T21:43:59.354Z,3.35
2022-09-15T21:46:29.610Z,2.70
2022-09-15T21:48:59.300Z,5.00
2022-09-15T21:51:28.939Z,3.90
2022-09-15T21:53:58.419Z,3.53
2022-09-15T21:56:27.455Z,6.43
2022-09-15T21:58:54.599Z,3.75
2022-09-15T22:01:25.788Z,2.55
2022-09-15T22:03:59.596Z,6.45
2022-09-15T22:06:31.951Z,4.00
2022-09-15T22:09:07.287Z,5.13
2022-09-15T22:11:35.684Z,3.28
2022-09-15T22:14:04.383Z,3.38
2022-09-15T22:16:33.880Z,21.15
2022-09-15T22:19:01.934Z,10.63
2022-09-15T22:21:36.745Z,16.52
2022-09-15T22:24:07.048Z,9.32
2022-09-15T22:26:37.637Z,3.35
2022-09-15T22:29:05.515Z,2.25
2022-09-15T22:31:33.004Z,3.58
2022-09-15T22:34:00.176Z,3.08
2022-09-15T22:36:30.461Z,2.58
2022-09-15T22:39:06.169Z,4.53
2022-09-15T22:41:39.229Z,9.45
2022-09-15T22:44:11.186Z,5.00
2022-09-15T22:46:38.218Z,3.58
2022-09-15T22:49:05.144Z,7.45
2022-09-15T22:51:32.143Z,7.55
2022-09-15T22:53:59.656Z,2.60
2022-09-15T22:56:26.986Z,4.60
2022-09-15T22:58:56.084Z,8.18
2022-09-15T23:01:30.487Z,7.63
2022-09-15T23:04:01.077Z,9.52
2022-09-15T23:06:32.902Z,6.30
2022-09-15T23:09:08.489Z,7.30
2022-09-15T23:11:39.695Z,6.50
2022-09-15T23:14:13.328Z,8.43
2022-09-15T23:19:08.041Z,9.55
2022-09-15T23:21:35.071Z,4.32
2022-09-15T23:24:02.623Z,6.65
2022-09-15T23:26:29.549Z,4.60
2022-09-15T23:28:56.532Z,8.43
2022-09-15T23:31:23.683Z,7.85
2022-09-15T23:33:50.850Z,9.85
2022-09-15T23:36:19.612Z,5.55
2022-09-15T23:38:48.134Z,8.70
2022-09-15T23:41:16.935Z,6.25
2022-09-15T23:43:45.216Z,8.13
2022-09-15T23:46:12.750Z,2.75
2022-09-15T23:48:39.966Z,9.45
2022-09-15T23:51:07.083Z,5.28
2022-09-15T23:53:34.822Z,5.93
2022-09-15T23:56:02.584Z,8.63
2022-09-15T23:58:29.968Z,10.55
